Time;durP1;ratioP1;P1;durP2;ratioP2;P2;SDS_P1;SDS_P2;PMS_P1;PMS_P2;Temp;Humidity;BMP_temperature;BMP_pressure;BME280_temperature;BME280_humidity;BME280_pressure;Samples;Min_cycle;Max_cycle;Signal;HPM_P1;HPM_P2
2023/01/17 00:12:04;;;;;;;8.05;5.65;;;3.80;99.90;;;;;;15200899;23;20469;-37
2023/01/17 00:18:06;;;;;;;7.22;4.88;;;3.80;99.90;;;;;;15196244;23;20026;-37
2023/01/17 01:39:21;;;;;;;5.38;3.85;;;3.40;99.90;;;;;;15195344;23;20362;-38
2023/01/17 01:45:26;;;;;;;5.43;3.55;;;3.40;99.90;;;;;;15196897;23;20054;-37
2023/01/17 01:51:37;;;;;;;4.97;3.65;;;3.50;99.90;;;;;;15200363;23;20432;-37
2023/01/17 01:57:44;;;;;;;5.05;3.55;;;3.50;99.90;;;;;;15170074;23;20018;-37
2023/01/17 02:03:48;;;;;;;4.13;2.92;;;3.40;99.90;;;;;;15145915;23;20029;-37
2023/01/17 02:09:51;;;;;;;4.50;3.28;;;3.40;99.90;;;;;;15196169;23;20018;-37
2023/01/17 02:16:12;;;;;;;3.67;2.63;;;3.40;99.90;;;;;;15193928;23;20049;-37
2023/01/17 02:22:36;;;;;;;4.07;2.90;;;3.50;99.90;;;;;;15197993;23;20512;-36
2023/01/17 02:28:41;;;;;;;4.38;2.97;;;3.50;99.90;;;;;;15198349;23;20022;-37
2023/01/17 02:35:26;;;;;;;7.68;3.58;;;3.40;99.90;;;;;;15195481;23;20025;-38
2023/01/17 02:41:37;;;;;;;5.38;3.83;;;3.40;99.90;;;;;;15194444;23;20638;-37
2023/01/17 02:47:40;;;;;;;8.40;4.40;;;3.40;99.90;;;;;;15171283;23;20041;-37
2023/01/17 02:54:03;;;;;;;5.05;3.75;;;3.40;99.90;;;;;;15191184;23;20026;-37
2023/01/17 03:00:13;;;;;;;6.85;4.07;;;3.50;99.90;;;;;;15194297;23;20029;-37
2023/01/17 03:06:24;;;;;;;4.95;3.47;;;3.60;99.90;;;;;;15191888;23;20018;-37
2023/01/17 03:12:32;;;;;;;4.20;2.80;;;3.70;99.90;;;;;;15185437;23;20081;-37
2023/01/17 03:18:34;;;;;;;5.25;3.22;;;3.70;99.90;;;;;;15190683;23;20355;-37
2023/01/17 03:24:36;;;;;;;3.45;2.17;;;3.70;99.90;;;;;;15187098;23;20029;-38
2023/01/17 03:30:39;;;;;;;3.50;2.40;;;3.50;99.90;;;;;;15192349;23;20021;-37
2023/01/17 03:36:41;;;;;;;3.05;2.10;;;3.50;99.90;;;;;;15192008;23;20073;-37
2023/01/17 03:42:44;;;;;;;2.85;2.00;;;3.40;99.90;;;;;;15190149;23;20537;-37
2023/01/17 03:48:46;;;;;;;1.88;1.30;;;3.40;99.90;;;;;;15194248;23;20022;-37
2023/01/17 03:54:48;;;;;;;2.45;1.10;;;3.20;99.90;;;;;;15190155;23;20100;-37
2023/01/17 04:00:50;;;;;;;1.75;0.80;;;3.20;99.90;;;;;;15184988;23;20113;-37
2023/01/17 04:06:53;;;;;;;1.00;0.65;;;3.20;99.90;;;;;;15190220;23;20026;-37
2023/01/17 04:12:56;;;;;;;0.70;0.55;;;3.20;99.90;;;;;;15191435;23;20026;-38
2023/01/17 04:18:58;;;;;;;0.63;0.40;;;3.20;99.90;;;;;;15192775;23;20022;-37
2023/01/17 04:25:00;;;;;;;1.52;0.50;;;3.10;99.90;;;;;;15195931;23;20018;-36
2023/01/17 04:31:02;;;;;;;1.23;0.43;;;3.00;99.90;;;;;;15195697;23;20707;-37
2023/01/17 04:37:04;;;;;;;1.92;0.93;;;2.90;99.90;;;;;;15197936;23;20100;-36
2023/01/17 04:43:06;;;;;;;1.85;1.05;;;2.80;99.90;;;;;;15196254;23;20049;-37
2023/01/17 04:49:08;;;;;;;0.60;0.50;;;2.70;99.90;;;;;;15194784;23;20022;-37
2023/01/17 04:55:11;;;;;;;0.38;0.20;;;2.50;99.90;;;;;;15188666;23;20026;-36
2023/01/17 05:01:13;;;;;;;0.77;0.40;;;2.00;99.90;;;;;;15195461;23;20033;-36
2023/01/17 05:07:15;;;;;;;0.15;0.15;;;2.00;99.90;;;;;;15192720;23;20030;-36
2023/01/17 05:13:17;;;;;;;1.17;0.20;;;2.00;99.90;;;;;;15195626;23;20347;-37
2023/01/17 05:19:19;;;;;;;2.25;0.30;;;1.80;99.90;;;;;;15168975;23;20022;-37
2023/01/17 05:25:29;;;;;;;0.50;0.30;;;1.70;99.90;;;;;;15196423;23;20113;-37
2023/01/17 05:31:32;;;;;;;0.10;0.10;;;1.70;99.90;;;;;;15195611;23;20021;-37
2023/01/17 05:37:34;;;;;;;0.73;0.32;;;1.60;99.90;;;;;;15197083;23;20037;-36
2023/01/17 05:43:36;;;;;;;0.88;0.47;;;1.60;99.90;;;;;;15197411;23;20029;-38
2023/01/17 05:49:38;;;;;;;1.90;1.20;;;1.50;99.90;;;;;;15197123;23;20018;-36
2023/01/17 05:55:40;;;;;;;2.22;1.10;;;1.40;99.90;;;;;;15158761;23;20026;-37
2023/01/17 06:01:42;;;;;;;1.42;0.80;;;1.40;99.90;;;;;;15195275;23;20402;-37
2023/01/17 06:07:45;;;;;;;1.80;0.52;;;1.40;99.90;;;;;;15193593;23;20052;-37
2023/01/17 06:13:48;;;;;;;1.27;0.50;;;1.30;99.90;;;;;;15191250;23;20312;-36
2023/01/17 06:19:50;;;;;;;0.50;0.33;;;1.30;99.90;;;;;;15189604;23;20036;-37
2023/01/17 06:25:52;;;;;;;3.97;0.70;;;1.40;99.90;;;;;;15190438;23;20022;-37
2023/01/17 06:31:54;;;;;;;1.88;0.65;;;1.40;99.90;;;;;;15193023;23;20021;-36
2023/01/17 06:37:58;;;;;;;1.08;0.50;;;1.40;99.90;;;;;;15188961;23;21093;-37
2023/01/17 06:44:00;;;;;;;0.70;0.50;;;1.50;99.90;;;;;;15163938;23;20081;-37
2023/01/17 06:50:02;;;;;;;3.08;1.05;;;1.50;99.90;;;;;;15189765;23;20061;-37
2023/01/17 06:56:05;;;;;;;1.92;0.90;;;1.50;99.90;;;;;;15191940;23;20525;-37
2023/01/17 07:02:10;;;;;;;2.22;0.90;;;1.60;99.90;;;;;;15190569;23;20030;-37
2023/01/17 07:08:12;;;;;;;4.30;1.10;;;1.50;99.90;;;;;;15193185;23;20025;-37
2023/01/17 07:14:14;;;;;;;3.08;1.30;;;1.60;99.90;;;;;;15188676;23;20037;-38
2023/01/17 07:20:17;;;;;;;7.97;2.08;;;1.60;99.90;;;;;;15190381;23;20104;-37
2023/01/17 07:26:19;;;;;;;4.15;1.63;;;1.60;99.90;;;;;;15187588;23;20117;-36
2023/01/17 07:32:21;;;;;;;5.88;1.55;;;1.60;99.90;;;;;;15189925;23;20541;-37
2023/01/17 07:38:23;;;;;;;6.43;1.50;;;1.70;99.90;;;;;;15189421;23;20457;-37
2023/01/17 07:44:25;;;;;;;3.55;1.35;;;1.80;99.90;;;;;;15189141;23;20336;-36
2023/01/17 07:50:27;;;;;;;6.20;1.95;;;1.70;99.90;;;;;;15188239;23;20032;-38
2023/01/17 07:56:32;;;;;;;4.15;1.70;;;1.90;99.90;;;;;;15193304;23;20025;-38
2023/01/17 08:02:33;;;;;;;3.50;1.60;;;1.90;99.90;;;;;;15191667;23;20513;-38
2023/01/17 08:08:35;;;;;;;8.30;2.33;;;1.90;99.90;;;;;;15194384;23;20097;-37
2023/01/17 08:14:38;;;;;;;7.78;1.92;;;2.00;99.90;;;;;;15192548;23;20032;-37
2023/01/17 08:20:44;;;;;;;4.20;2.22;;;2.00;99.90;;;;;;15194078;23;20104;-38
2023/01/17 08:26:46;;;;;;;7.32;3.10;;;1.90;99.90;;;;;;15193349;23;20022;-37
2023/01/17 08:32:48;;;;;;;9.07;3.25;;;1.70;99.90;;;;;;15190725;23;20046;-37
2023/01/17 08:38:51;;;;;;;8.20;3.53;;;1.60;99.90;;;;;;15197052;23;20038;-38
2023/01/17 08:44:53;;;;;;;10.02;3.78;;;1.50;99.90;;;;;;15192432;23;20533;-37
2023/01/17 08:51:00;;;;;;;12.90;3.42;;;1.40;99.90;;;;;;15193188;23;20346;-38
2023/01/17 08:57:03;;;;;;;5.25;3.08;;;1.50;99.90;;;;;;15193294;23;20025;-37
2023/01/17 09:03:09;;;;;;;4.63;2.90;;;1.50;99.90;;;;;;15193590;23;20025;-37
2023/01/17 09:09:12;;;;;;;7.05;2.90;;;1.60;99.90;;;;;;15189533;23;20470;-38
2023/01/17 09:15:18;;;;;;;6.88;3.10;;;1.70;99.90;;;;;;15192337;23;20026;-37
2023/01/17 09:21:21;;;;;;;5.63;2.63;;;1.80;99.90;;;;;;15188841;23;20049;-37
2023/01/17 09:27:23;;;;;;;7.18;3.05;;;1.90;99.90;;;;;;15192556;23;20022;-38
2023/01/17 09:33:25;;;;;;;7.25;2.90;;;1.90;99.90;;;;;;15191712;23;20645;-38
2023/01/17 09:39:27;;;;;;;7.57;3.05;;;2.10;99.90;;;;;;15162379;23;20022;-37
2023/01/17 09:45:31;;;;;;;7.47;2.80;;;2.20;99.90;;;;;;15189283;23;20458;-37
2023/01/17 09:51:34;;;;;;;6.35;3.00;;;2.20;99.90;;;;;;15190581;23;20033;-38
2023/01/17 09:58:01;;;;;;;8.23;3.28;;;2.10;99.90;;;;;;15191131;23;20029;-38
2023/01/17 10:04:34;;;;;;;5.82;2.90;;;2.30;99.90;;;;;;15188954;23;20041;-38
2023/01/17 10:10:53;;;;;;;7.35;2.90;;;2.40;99.90;;;;;;15166299;23;20149;-38
2023/01/17 10:17:15;;;;;;;9.07;2.95;;;2.60;99.90;;;;;;15193579;23;20025;-38
2023/01/17 10:23:35;;;;;;;7.72;2.53;;;2.60;99.90;;;;;;15192662;23;20435;-38
2023/01/17 10:29:38;;;;;;;4.70;2.42;;;2.60;99.90;;;;;;15190830;23;20017;-38
2023/01/17 10:35:52;;;;;;;5.50;2.85;;;2.30;99.90;;;;;;15192707;23;20045;-37
2023/01/17 10:42:00;;;;;;;11.00;3.20;;;2.50;99.90;;;;;;15192107;23;20161;-37
2023/01/17 10:48:15;;;;;;;4.80;2.40;;;2.40;99.90;;;;;;15191515;23;20017;-38
2023/01/17 10:54:26;;;;;;;7.20;2.92;;;2.10;99.90;;;;;;15187874;23;20018;-38
2023/01/17 11:00:46;;;;;;;9.85;3.15;;;2.00;99.90;;;;;;15189258;23;20029;-38
2023/01/17 11:07:12;;;;;;;11.32;3.00;;;2.20;99.90;;;;;;15193883;23;20022;-38
2023/01/17 11:13:23;;;;;;;9.65;3.70;;;2.50;99.90;;;;;;15190807;23;20692;-38
2023/01/17 11:19:35;;;;;;;8.65;3.65;;;3.10;99.90;;;;;;15191451;23;20026;-38
2023/01/17 11:25:37;;;;;;;11.20;4.60;;;3.30;99.90;;;;;;15190579;23;20521;-38
2023/01/17 11:31:39;;;;;;;8.55;4.10;;;3.30;99.90;;;;;;15166619;23;20024;-37
2023/01/17 11:37:50;;;;;;;10.82;4.30;;;3.40;99.90;;;;;;15193485;23;20057;-38
2023/01/17 11:43:57;;;;;;;9.88;3.83;;;3.10;99.90;;;;;;15174949;23;20113;-37
2023/01/17 11:50:01;;;;;;;8.80;4.68;;;2.80;99.90;;;;;;15209074;23;20029;-37
2023/01/17 11:56:28;;;;;;;8.98;4.55;;;2.90;99.90;;;;;;15210758;23;20109;-38
2023/01/17 12:03:03;;;;;;;10.75;4.93;;;2.70;99.90;;;;;;15210313;23;20025;-37
2023/01/17 12:09:22;;;;;;;11.00;4.65;;;2.80;99.90;;;;;;15201154;23;20026;-37
2023/01/17 12:22:32;;;;;;;10.27;4.78;;;3.10;99.90;;;;;;15079625;23;20109;-37
2023/01/17 12:29:02;;;;;;;10.45;5.13;;;3.50;99.90;;;;;;15182738;23;20097;-37
2023/01/17 12:35:19;;;;;;;9.07;5.38;;;3.90;99.90;;;;;;15182767;23;20026;-37
2023/01/17 12:41:29;;;;;;;10.55;5.00;;;3.80;99.90;;;;;;15208765;23;20581;-37
2023/01/17 12:47:36;;;;;;;11.65;4.63;;;3.90;99.90;;;;;;15205380;23;20025;-38
2023/01/17 12:53:58;;;;;;;8.93;4.43;;;4.00;99.90;;;;;;15207957;23;20029;-37
2023/01/17 13:00:18;;;;;;;9.23;4.60;;;3.70;99.90;;;;;;15208112;23;20022;-37
2023/01/17 13:06:58;;;;;;;7.40;4.72;;;3.60;99.90;;;;;;15208743;23;20022;-37
2023/01/17 13:13:19;;;;;;;9.15;5.15;;;3.30;99.90;;;;;;15065126;23;20392;-37
2023/01/17 13:19:51;;;;;;;10.98;5.72;;;3.20;99.90;;;;;;15207648;23;20021;-37
2023/01/17 13:25:56;;;;;;;13.32;6.15;;;3.10;99.90;;;;;;15207313;23;20048;-37
2023/01/17 13:32:26;;;;;;;;;;;3.00;99.90;;;;;;15206279;23;20018;-37
2023/01/17 13:39:05;;;;;;;13.18;6.97;;;3.00;99.90;;;;;;15207032;23;19980;-38
2023/01/17 13:45:19;;;;;;;9.90;6.00;;;3.10;99.90;;;;;;15207895;23;20029;-37
2023/01/17 13:52:00;;;;;;;14.95;6.57;;;3.00;99.90;;;;;;15208297;23;20525;-38
2023/01/17 13:58:02;;;;;;;14.63;6.50;;;2.70;99.90;;;;;;15206429;23;20104;-38
2023/01/17 14:04:07;;;;;;;10.50;6.10;;;2.60;99.90;;;;;;15207888;23;20145;-38
2023/01/17 14:10:40;;;;;;;11.68;6.07;;;2.60;99.90;;;;;;15208614;23;20018;-38
2023/01/17 14:16:42;;;;;;;12.68;6.22;;;2.60;99.90;;;;;;15183856;23;20022;-38
2023/01/17 14:22:54;;;;;;;10.95;6.28;;;2.40;99.90;;;;;;15205664;23;20081;-39
2023/01/17 14:29:17;;;;;;;12.55;5.63;;;2.40;99.90;;;;;;15205099;23;20201;-37
2023/01/17 14:35:21;;;;;;;13.20;6.60;;;2.40;99.90;;;;;;15203387;23;20096;-37
2023/01/17 14:41:28;;;;;;;15.40;8.10;;;2.40;99.90;;;;;;15203468;23;20093;-37
2023/01/17 14:47:32;;;;;;;15.82;7.57;;;2.30;99.90;;;;;;15205695;23;20026;-38
2023/01/17 14:53:34;;;;;;;20.50;8.20;;;2.30;99.90;;;;;;15207001;23;20328;-37
2023/01/17 14:59:36;;;;;;;13.50;7.70;;;2.20;99.90;;;;;;15202415;23;20033;-37
2023/01/17 15:05:44;;;;;;;14.52;8.20;;;2.10;99.90;;;;;;15202803;23;20201;-37
2023/01/17 15:11:49;;;;;;;16.45;9.68;;;2.10;99.90;;;;;;15156307;23;20061;-38
2023/01/17 15:17:52;;;;;;;19.85;9.35;;;2.00;99.90;;;;;;15205623;23;20022;-37
2023/01/17 15:23:57;;;;;;;13.80;9.00;;;1.90;99.90;;;;;;15205674;23;20037;-37
2023/01/17 15:30:02;;;;;;;19.08;8.38;;;1.90;99.90;;;;;;15206163;23;20025;-37
2023/01/17 15:36:27;;;;;;;18.88;9.18;;;1.80;99.90;;;;;;15205663;23;20041;-37
2023/01/17 15:42:30;;;;;;;15.95;8.15;;;1.70;99.90;;;;;;15204356;23;20024;-37
2023/01/17 15:48:37;;;;;;;15.15;8.13;;;1.60;99.90;;;;;;15205784;23;20029;-37
2023/01/17 15:54:54;;;;;;;20.90;9.07;;;1.50;99.90;;;;;;15205145;23;20034;-38
2023/01/17 16:00:57;;;;;;;14.95;8.70;;;1.40;99.90;;;;;;15204435;23;20092;-37
2023/01/17 16:07:20;;;;;;;18.38;8.45;;;1.30;99.90;;;;;;15205994;23;20022;-38
2023/01/17 16:13:22;;;;;;;14.00;7.75;;;1.20;99.90;;;;;;15202883;23;20022;-38
2023/01/17 16:19:25;;;;;;;16.40;8.73;;;1.10;99.90;;;;;;15208517;23;20086;-37
2023/01/17 16:25:31;;;;;;;19.40;8.75;;;1.10;99.90;;;;;;15181944;23;20030;-37
2023/01/17 16:31:33;;;;;;;17.38;9.65;;;1.00;99.90;;;;;;15209236;23;20025;-38
2023/01/17 16:37:35;;;;;;;15.93;9.35;;;0.90;99.90;;;;;;15207492;23;20105;-38
2023/01/17 16:43:37;;;;;;;19.38;9.02;;;0.90;99.90;;;;;;15208026;23;20077;-38
2023/01/17 16:49:38;;;;;;;19.45;9.35;;;0.90;99.90;;;;;;15208736;23;20018;-38
2023/01/17 16:55:42;;;;;;;21.08;9.77;;;0.90;99.90;;;;;;15208589;23;20026;-38
2023/01/17 17:01:46;;;;;;;22.02;9.20;;;0.90;99.90;;;;;;15208460;23;20022;-38
2023/01/17 17:07:51;;;;;;;20.35;9.38;;;0.90;99.90;;;;;;15205854;23;20029;-38
2023/01/17 17:13:53;;;;;;;18.92;8.85;;;0.80;99.90;;;;;;15207169;23;20025;-38
2023/01/17 17:19:56;;;;;;;19.58;8.70;;;0.90;99.90;;;;;;15209325;23;20029;-38
2023/01/17 17:25:58;;;;;;;17.55;8.27;;;0.90;99.90;;;;;;15210678;23;20026;-38
2023/01/17 17:32:00;;;;;;;18.35;8.00;;;0.90;99.90;;;;;;15208199;23;20324;-37
2023/01/17 17:38:04;;;;;;;17.05;7.55;;;0.90;99.90;;;;;;15207270;23;20048;-37
2023/01/17 17:44:06;;;;;;;15.52;8.52;;;0.80;99.90;;;;;;15206858;23;20037;-37
2023/01/17 17:50:13;;;;;;;19.08;9.23;;;0.70;99.90;;;;;;15209482;23;20442;-38
2023/01/17 17:56:15;;;;;;;21.23;8.52;;;0.70;99.90;;;;;;15183741;23;20328;-39
2023/01/17 18:02:18;;;;;;;24.83;8.70;;;0.60;99.90;;;;;;15208830;23;20025;-37
2023/01/17 18:08:20;;;;;;;19.60;8.10;;;0.60;99.90;;;;;;15207339;23;20018;-37
2023/01/17 18:14:23;;;;;;;17.10;8.40;;;0.50;99.90;;;;;;15204520;23;20029;-38
2023/01/17 18:20:25;;;;;;;17.55;8.18;;;0.40;99.90;;;;;;15208110;23;20022;-37
2023/01/17 18:26:36;;;;;;;15.77;7.50;;;0.40;99.90;;;;;;15207102;23;20033;-37
2023/01/17 18:32:38;;;;;;;19.92;8.50;;;0.40;99.90;;;;;;15208031;23;20029;-37
2023/01/17 18:38:43;;;;;;;17.45;9.07;;;0.40;99.90;;;;;;15204797;23;20061;-38
2023/01/17 18:44:44;;;;;;;22.20;8.02;;;0.50;99.90;;;;;;15204679;23;20033;-37
2023/01/17 18:51:01;;;;;;;15.63;7.38;;;0.50;99.90;;;;;;15205995;23;20691;-36
2023/01/17 18:57:03;;;;;;;15.88;6.57;;;0.50;99.90;;;;;;15206507;23;20026;-37
2023/01/17 19:03:05;;;;;;;17.85;7.53;;;0.60;99.90;;;;;;15203037;23;20026;-38
2023/01/17 19:09:09;;;;;;;18.30;7.15;;;0.60;99.90;;;;;;15205817;23;20022;-38
2023/01/17 19:15:11;;;;;;;19.67;7.50;;;0.50;99.90;;;;;;15177820;23;20029;-38
2023/01/17 19:21:16;;;;;;;18.52;6.82;;;0.40;99.90;;;;;;15205510;23;20041;-37
2023/01/17 19:27:18;;;;;;;13.38;7.35;;;0.40;99.90;;;;;;15206827;23;20426;-37
2023/01/17 19:33:20;;;;;;;20.00;7.43;;;0.40;99.90;;;;;;15178648;23;20022;-37
2023/01/17 19:39:24;;;;;;;15.50;6.45;;;0.40;99.90;;;;;;15205144;23;20026;-37
2023/01/17 19:45:26;;;;;;;15.93;7.63;;;0.40;99.90;;;;;;15204222;23;20748;-37
2023/01/17 19:51:28;;;;;;;15.23;7.28;;;0.30;99.90;;;;;;15205515;23;20321;-37
2023/01/17 19:57:34;;;;;;;15.15;7.53;;;0.20;99.90;;;;;;15211763;23;20383;-38
2023/01/17 20:03:37;;;;;;;21.13;6.80;;;0.20;99.90;;;;;;15208763;23;20033;-38
2023/01/17 20:09:39;;;;;;;16.20;6.85;;;0.20;99.90;;;;;;15204376;23;20100;-38
2023/01/17 20:15:40;;;;;;;14.80;6.97;;;0.10;99.90;;;;;;15208910;23;20354;-37
2023/01/17 20:21:42;;;;;;;14.10;6.32;;;0.10;99.90;;;;;;15208287;23;20029;-38
2023/01/17 20:27:44;;;;;;;13.98;7.03;;;0.10;99.90;;;;;;15209936;23;20044;-38
2023/01/17 20:33:49;;;;;;;16.63;7.63;;;0.10;99.90;;;;;;15208502;23;20026;-37
2023/01/17 20:39:52;;;;;;;19.75;7.82;;;0.00;99.90;;;;;;15208658;23;20021;-37
2023/01/17 20:45:54;;;;;;;13.38;7.80;;;0.00;99.90;;;;;;15210042;23;20132;-37
2023/01/17 20:51:58;;;;;;;18.27;6.95;;;0.00;99.90;;;;;;15209839;23;20060;-37
2023/01/17 20:58:00;;;;;;;22.60;7.63;;;0.00;99.90;;;;;;15209732;23;20076;-38
2023/01/17 21:04:03;;;;;;;16.10;7.20;;;0.00;99.90;;;;;;15205872;23;20057;-38
2023/01/17 21:10:05;;;;;;;16.55;7.63;;;0.00;99.90;;;;;;15210241;23;20018;-38
2023/01/17 21:16:09;;;;;;;15.38;7.60;;;0.10;99.90;;;;;;15170531;23;20080;-37
2023/01/17 21:22:13;;;;;;;13.88;8.05;;;0.00;99.90;;;;;;15207545;23;20028;-37
2023/01/17 21:28:15;;;;;;;18.40;8.48;;;0.00;99.90;;;;;;15208504;23;20030;-37
2023/01/17 21:34:17;;;;;;;14.57;8.30;;;0.00;99.90;;;;;;15208888;23;20025;-38
2023/01/17 21:40:19;;;;;;;14.90;7.72;;;0.00;99.90;;;;;;15206021;23;20026;-38
2023/01/17 21:46:21;;;;;;;18.33;8.55;;;0.00;99.90;;;;;;15205430;23;20068;-38
2023/01/17 21:52:23;;;;;;;19.00;8.75;;;0.00;99.90;;;;;;15208620;23;20026;-37
2023/01/17 21:58:43;;;;;;;19.58;8.35;;;-0.10;99.90;;;;;;15207088;23;20112;-37
2023/01/17 22:04:45;;;;;;;18.67;8.93;;;-0.10;99.90;;;;;;15205996;23;20030;-37
2023/01/17 22:10:47;;;;;;;17.05;8.40;;;-0.20;99.90;;;;;;15206905;23;20037;-37
2023/01/17 22:16:50;;;;;;;15.35;8.40;;;-0.30;99.90;;;;;;15207466;23;20454;-37
2023/01/17 22:22:52;;;;;;;21.38;8.75;;;-0.20;99.90;;;;;;15206604;23;20466;-38
2023/01/17 22:28:55;;;;;;;17.58;9.82;;;-0.20;99.90;;;;;;15206330;23;20018;-38
2023/01/17 22:34:57;;;;;;;18.90;9.55;;;-0.20;99.90;;;;;;15206399;23;20030;-38
2023/01/17 22:41:06;;;;;;;18.40;10.15;;;-0.40;99.90;;;;;;15206560;23;20024;-37
2023/01/17 22:47:08;;;;;;;18.67;9.18;;;-0.30;99.90;;;;;;15203509;23;20022;-37
2023/01/17 22:53:10;;;;;;;19.90;9.75;;;-0.30;99.90;;;;;;15205278;23;20021;-38
2023/01/17 22:59:12;;;;;;;21.83;10.07;;;-0.30;99.90;;;;;;15206531;23;20022;-38
2023/01/17 23:05:14;;;;;;;30.30;12.15;;;-0.30;99.90;;;;;;15206474;23;20061;-38
2023/01/17 23:24:02;;;;;;;18.48;9.20;;;-0.30;99.90;;;;;;15204498;23;20088;-38
2023/01/17 23:30:16;;;;;;;19.50;10.07;;;-0.40;99.90;;;;;;15205806;23;20018;-38
2023/01/17 23:36:18;;;;;;;15.65;8.98;;;-0.40;99.90;;;;;;15144950;23;20029;-38
2023/01/17 23:48:40;;;;;;;17.65;9.77;;;-0.40;99.90;;;;;;15175557;23;20022;-38
2023/01/17 23:54:42;;;;;;;17.80;9.43;;;-0.50;99.90;;;;;;15199337;23;20150;-38
